createdAt,value
2022-07-28T00:01:18.559Z,28.06
2022-07-28T00:03:49.156Z,27.80
2022-07-28T00:06:17.569Z,27.73
2022-07-28T00:08:45.346Z,27.71
2022-07-28T00:11:13.598Z,27.89
2022-07-28T00:13:41.463Z,27.75
2022-07-28T00:16:09.559Z,27.76
2022-07-28T00:18:37.469Z,27.78
2022-07-28T00:21:05.353Z,27.74
2022-07-28T00:23:39.515Z,27.77
2022-07-28T00:26:10.138Z,27.78
2022-07-28T00:28:39.064Z,27.66
2022-07-28T00:31:11.017Z,27.52
2022-07-28T00:33:41.001Z,27.55
2022-07-28T00:36:11.610Z,27.62
2022-07-28T00:38:44.061Z,27.52
2022-07-28T00:41:13.369Z,27.47
2022-07-28T00:43:43.824Z,27.44
2022-07-28T00:46:13.815Z,27.44
2022-07-28T00:48:48.340Z,27.40
2022-07-28T00:51:17.569Z,27.40
2022-07-28T00:53:46.282Z,27.46
2022-07-28T00:56:14.880Z,27.35
2022-07-28T00:58:43.871Z,27.43
2022-07-28T01:01:15.836Z,27.50
2022-07-28T01:03:56.378Z,27.53
2022-07-28T01:06:52.337Z,27.52
2022-07-28T01:09:30.319Z,27.48
2022-07-28T01:12:09.828Z,27.46
2022-07-28T01:14:45.349Z,27.41
2022-07-28T01:17:44.629Z,27.49
2022-07-28T01:20:16.599Z,27.29
2022-07-28T01:23:12.971Z,27.24
2022-07-28T01:26:01.149Z,27.14
2022-07-28T01:29:06.913Z,27.13
2022-07-28T01:31:41.423Z,27.21
2022-07-28T01:34:17.511Z,27.16
2022-07-28T01:36:52.243Z,27.01
2022-07-28T01:39:22.172Z,26.91
2022-07-28T01:41:52.717Z,26.97
2022-07-28T01:44:25.195Z,26.90
2022-07-28T01:46:54.756Z,26.95
2022-07-28T01:49:26.547Z,26.97
2022-07-28T01:51:56.722Z,26.95
2022-07-28T01:54:28.574Z,26.89
2022-07-28T01:56:59.492Z,27.00
2022-07-28T01:59:30.476Z,27.06
2022-07-28T02:02:02.107Z,27.00
2022-07-28T02:04:33.866Z,26.95
2022-07-28T02:07:04.023Z,26.89
2022-07-28T02:09:34.622Z,26.84
2022-07-28T02:12:04.560Z,26.90
2022-07-28T02:14:36.451Z,26.94
2022-07-28T02:17:13.328Z,26.84
2022-07-28T02:19:43.625Z,26.79
2022-07-28T02:22:12.401Z,26.78
2022-07-28T02:24:41.901Z,26.77
2022-07-28T02:27:24.720Z,26.78
2022-07-28T02:30:05.060Z,26.78
2022-07-28T02:32:42.209Z,26.61
2022-07-28T02:35:27.909Z,26.66
2022-07-28T02:38:05.272Z,26.63
2022-07-28T02:40:38.492Z,26.58
2022-07-28T02:43:15.005Z,26.57
2022-07-28T02:45:49.241Z,26.48
2022-07-28T02:48:21.617Z,26.59
2022-07-28T02:50:50.950Z,26.57
2022-07-28T02:53:21.387Z,26.60
2022-07-28T02:55:51.231Z,26.47
2022-07-28T02:58:22.359Z,26.36
2022-07-28T03:00:53.623Z,26.25
2022-07-28T03:03:23.764Z,26.18
2022-07-28T03:05:52.268Z,26.20
2022-07-28T03:08:20.516Z,26.23
2022-07-28T03:10:48.742Z,26.29
2022-07-28T03:13:17.274Z,26.23
2022-07-28T03:15:45.315Z,26.29
2022-07-28T03:18:13.055Z,26.09
2022-07-28T03:20:41.258Z,26.33
2022-07-28T03:23:10.700Z,26.27
2022-07-28T03:25:44.897Z,26.25
2022-07-28T03:28:19.585Z,26.14
2022-07-28T03:30:56.066Z,26.18
2022-07-28T03:33:24.459Z,26.16
2022-07-28T03:35:57.130Z,25.96
2022-07-28T03:38:28.895Z,25.96
2022-07-28T03:40:58.757Z,25.95
2022-07-28T03:43:27.535Z,25.94
2022-07-28T03:45:55.419Z,25.91
2022-07-28T03:48:32.094Z,25.99
2022-07-28T03:51:00.604Z,26.04
2022-07-28T03:53:29.806Z,25.99
2022-07-28T03:55:58.469Z,26.00
2022-07-28T03:58:28.582Z,25.91
2022-07-28T04:00:58.407Z,25.82
2022-07-28T04:03:43.083Z,25.73
2022-07-28T04:06:12.950Z,25.82
2022-07-28T04:08:41.753Z,25.76
2022-07-28T04:11:09.537Z,25.79
2022-07-28T04:13:37.485Z,25.71
2022-07-28T04:16:07.211Z,25.78
2022-07-28T04:18:36.303Z,25.81
2022-07-28T04:21:04.706Z,25.82
2022-07-28T04:23:32.925Z,25.85
2022-07-28T04:26:01.191Z,25.83
2022-07-28T04:28:29.059Z,25.91
2022-07-28T04:30:57.362Z,25.82
2022-07-28T04:33:25.301Z,25.84
2022-07-28T04:35:53.312Z,25.82
2022-07-28T04:38:21.415Z,26.07
2022-07-28T04:40:50.707Z,26.07
2022-07-28T04:43:18.648Z,26.08
2022-07-28T04:45:54.153Z,26.20
2022-07-28T04:48:25.387Z,26.36
2022-07-28T04:50:53.522Z,26.24
2022-07-28T04:53:22.755Z,26.27
2022-07-28T04:55:54.778Z,26.28
2022-07-28T04:58:23.654Z,26.41
2022-07-28T05:00:52.725Z,26.23
2022-07-28T05:03:21.775Z,26.23
2022-07-28T05:05:53.899Z,26.56
2022-07-28T05:08:25.442Z,26.50
2022-07-28T05:10:56.228Z,26.46
2022-07-28T05:13:28.898Z,26.48
2022-07-28T05:16:02.231Z,26.66
2022-07-28T05:18:30.029Z,26.78
2022-07-28T05:20:58.519Z,26.91
2022-07-28T05:23:26.373Z,26.91
2022-07-28T05:25:54.826Z,26.96
2022-07-28T05:28:22.622Z,26.93
2022-07-28T05:30:50.602Z,27.21
2022-07-28T05:33:18.940Z,27.35
2022-07-28T05:35:54.169Z,27.11
2022-07-28T05:38:22.221Z,26.99
2022-07-28T05:40:51.055Z,27.15
2022-07-28T05:43:20.256Z,27.10
2022-07-28T05:45:49.052Z,27.49
2022-07-28T05:48:19.101Z,27.40
2022-07-28T05:50:48.128Z,27.31
2022-07-28T05:53:16.755Z,27.64
2022-07-28T05:55:59.761Z,27.51
2022-07-28T05:58:30.925Z,27.78
2022-07-28T06:01:01.186Z,27.80
2022-07-28T06:03:32.257Z,27.90
2022-07-28T06:06:16.022Z,27.75
2022-07-28T06:08:46.407Z,27.93
2022-07-28T06:11:22.556Z,27.97
2022-07-28T06:13:52.609Z,27.91
2022-07-28T06:16:23.208Z,28.09
2022-07-28T06:18:52.011Z,28.37
2022-07-28T06:21:22.236Z,28.59
2022-07-28T06:23:50.836Z,28.64
2022-07-28T06:26:18.593Z,28.66
2022-07-28T06:28:46.322Z,28.68
2022-07-28T06:31:14.498Z,28.67
2022-07-28T06:33:43.194Z,28.64
2022-07-28T06:36:11.581Z,28.59
2022-07-28T06:38:39.351Z,28.45
2022-07-28T06:41:07.610Z,28.52
2022-07-28T06:43:38.958Z,28.51
2022-07-28T06:46:08.080Z,28.58
2022-07-28T06:48:39.676Z,28.72
2022-07-28T06:51:07.765Z,28.97
2022-07-28T06:53:36.075Z,29.38
2022-07-28T06:56:05.447Z,29.19
2022-07-28T06:58:34.366Z,29.11
2022-07-28T07:01:07.406Z,28.79
2022-07-28T07:03:35.734Z,28.83
2022-07-28T07:06:03.644Z,29.12
2022-07-28T07:08:31.228Z,29.15
2022-07-28T07:10:59.350Z,28.99
2022-07-28T07:13:27.290Z,28.84
2022-07-28T07:15:55.429Z,29.00
2022-07-28T07:18:23.368Z,29.23
2022-07-28T07:20:51.665Z,29.51
2022-07-28T07:23:19.601Z,29.46
2022-07-28T07:25:47.779Z,29.59
2022-07-28T07:28:15.540Z,29.85
2022-07-28T07:30:45.042Z,29.51
2022-07-28T07:33:13.275Z,29.62
2022-07-28T07:35:41.420Z,29.46
2022-07-28T07:38:09.428Z,29.32
2022-07-28T07:40:38.251Z,29.61
2022-07-28T07:43:06.020Z,29.63
2022-07-28T07:45:34.492Z,29.61
2022-07-28T07:48:03.563Z,29.44
2022-07-28T07:50:31.372Z,29.51
2022-07-28T07:52:59.216Z,29.97
2022-07-28T07:55:27.889Z,29.88
2022-07-28T07:58:02.879Z,30.03
2022-07-28T08:00:30.653Z,30.30
2022-07-28T08:03:00.297Z,29.87
2022-07-28T08:05:34.690Z,30.15
2022-07-28T08:08:05.629Z,30.26
2022-07-28T08:10:38.298Z,30.31
2022-07-28T08:13:07.640Z,30.45
2022-07-28T08:15:36.284Z,30.36
2022-07-28T08:18:04.942Z,30.36
2022-07-28T08:20:33.227Z,30.66
2022-07-28T08:23:01.392Z,30.73
2022-07-28T08:25:29.427Z,30.69
2022-07-28T08:27:57.635Z,30.53
2022-07-28T08:30:30.242Z,30.71
2022-07-28T08:33:02.398Z,30.82
2022-07-28T08:35:33.766Z,31.06
2022-07-28T08:38:06.280Z,31.13
2022-07-28T08:40:38.193Z,30.82
2022-07-28T08:43:30.773Z,30.84
2022-07-28T08:46:01.325Z,31.06
2022-07-28T08:48:31.491Z,30.74
2022-07-28T08:51:05.323Z,30.85
2022-07-28T08:53:35.865Z,31.13
2022-07-28T08:56:07.083Z,31.05
2022-07-28T08:58:37.420Z,31.02
2022-07-28T09:01:08.639Z,31.08
2022-07-28T09:03:39.115Z,31.26
2022-07-28T09:06:08.051Z,31.25
2022-07-28T09:08:36.225Z,31.30
2022-07-28T09:11:06.218Z,31.38
2022-07-28T09:13:35.233Z,31.57
2022-07-28T09:16:04.221Z,31.79
2022-07-28T09:18:32.578Z,31.97
2022-07-28T09:21:00.351Z,32.44
2022-07-28T09:23:44.467Z,32.75
2022-07-28T09:26:13.505Z,32.33
2022-07-28T09:28:52.537Z,32.50
2022-07-28T09:31:22.754Z,32.28
2022-07-28T09:34:02.980Z,32.43
2022-07-28T09:36:41.593Z,32.81
2022-07-28T09:39:10.741Z,32.83
2022-07-28T09:41:55.983Z,32.58
2022-07-28T09:44:27.091Z,32.77
2022-07-28T09:46:56.580Z,33.08
2022-07-28T09:49:44.413Z,33.00
2022-07-28T09:52:12.735Z,33.32
2022-07-28T09:55:00.889Z,33.18
2022-07-28T09:57:30.919Z,33.27
2022-07-28T10:00:03.250Z,33.46
2022-07-28T10:02:39.510Z,33.41
2022-07-28T10:05:07.739Z,33.64
2022-07-28T10:07:48.682Z,33.53
2022-07-28T10:10:20.684Z,33.43
2022-07-28T10:12:48.996Z,33.24
2022-07-28T10:15:46.811Z,33.54
2022-07-28T10:18:20.052Z,33.23
2022-07-28T10:20:52.483Z,33.34
2022-07-28T10:23:21.819Z,33.51
2022-07-28T10:25:51.790Z,34.03
2022-07-28T10:28:23.244Z,34.20
2022-07-28T10:30:58.626Z,34.11
2022-07-28T10:33:31.986Z,33.90
2022-07-28T10:36:01.378Z,34.33
2022-07-28T10:38:35.829Z,34.25
2022-07-28T10:41:07.100Z,34.56
2022-07-28T10:43:36.386Z,34.85
2022-07-28T10:46:16.006Z,34.91
2022-07-28T10:48:45.072Z,35.84
2022-07-28T10:51:13.935Z,35.84
2022-07-28T10:54:10.684Z,35.72
2022-07-28T10:56:48.730Z,36.10
2022-07-28T10:59:58.161Z,36.09
2022-07-28T11:02:48.881Z,36.67
2022-07-28T11:05:40.058Z,36.74
2022-07-28T11:08:29.298Z,36.86
2022-07-28T11:11:07.472Z,36.66
2022-07-28T11:13:41.021Z,36.50
2022-07-28T11:16:15.863Z,37.49
2022-07-28T11:19:02.215Z,37.66
2022-07-28T11:21:40.897Z,37.89
2022-07-28T11:24:13.136Z,37.63
2022-07-28T11:26:45.933Z,37.48
2022-07-28T11:29:14.901Z,38.22
2022-07-28T11:31:46.857Z,38.28
2022-07-28T11:34:20.226Z,37.97
2022-07-28T11:37:15.398Z,38.29
2022-07-28T11:39:44.255Z,39.82
2022-07-28T11:42:31.315Z,39.39
2022-07-28T11:45:24.355Z,40.07
2022-07-28T11:48:25.214Z,40.37
2022-07-28T11:51:12.862Z,39.07
2022-07-28T11:53:49.008Z,40.13
2022-07-28T11:56:24.977Z,39.84
2022-07-28T11:59:06.012Z,40.56
2022-07-28T12:01:38.399Z,40.16
2022-07-28T12:04:15.984Z,40.25
2022-07-28T12:06:49.390Z,41.18
2022-07-28T12:09:25.309Z,41.57
2022-07-28T12:11:55.877Z,40.61
2022-07-28T12:14:24.637Z,39.15
2022-07-28T12:16:53.304Z,40.41
2022-07-28T12:19:22.448Z,39.91
2022-07-28T12:21:55.661Z,40.09
2022-07-28T12:24:30.595Z,40.50
2022-07-28T12:27:00.845Z,39.05
2022-07-28T12:29:36.023Z,40.34
2022-07-28T12:32:05.943Z,40.45
2022-07-28T12:34:35.161Z,40.63
2022-07-28T12:37:09.684Z,40.08
2022-07-28T12:39:43.430Z,40.28
2022-07-28T12:42:13.492Z,40.01
2022-07-28T12:44:43.117Z,41.12
2022-07-28T12:47:13.134Z,40.37
2022-07-28T12:49:43.035Z,41.52
2022-07-28T12:52:16.951Z,41.91
2022-07-28T12:54:52.968Z,40.87
2022-07-28T12:57:48.614Z,38.38
2022-07-28T13:00:20.851Z,38.04
2022-07-28T13:02:51.319Z,38.54
2022-07-28T13:05:57.225Z,39.23
2022-07-28T13:08:27.673Z,40.42
2022-07-28T13:10:59.132Z,40.58
2022-07-28T13:13:27.314Z,42.28
2022-07-28T13:16:13.754Z,41.85
2022-07-28T13:18:44.236Z,40.82
2022-07-28T13:21:12.298Z,40.85
2022-07-28T13:23:40.605Z,43.15
2022-07-28T13:26:09.322Z,43.19
2022-07-28T13:28:37.108Z,43.14
2022-07-28T13:31:05.765Z,44.96
2022-07-28T13:33:33.613Z,45.24
2022-07-28T13:36:01.458Z,45.41
2022-07-28T13:38:30.051Z,42.87
2022-07-28T13:40:57.893Z,42.67
2022-07-28T13:43:36.413Z,43.00
2022-07-28T13:46:04.767Z,44.29
2022-07-28T13:48:32.992Z,44.59
2022-07-28T13:51:01.784Z,43.76
2022-07-28T13:53:29.641Z,44.26
2022-07-28T13:55:57.367Z,43.08
2022-07-28T13:58:25.108Z,43.21
2022-07-28T14:00:55.114Z,43.47
2022-07-28T14:03:24.274Z,42.96
2022-07-28T14:05:53.114Z,42.33
2022-07-28T14:08:21.534Z,42.62
2022-07-28T14:10:56.225Z,41.40
2022-07-28T14:13:28.253Z,40.40
2022-07-28T14:16:02.125Z,40.25
2022-07-28T14:18:32.921Z,39.50
2022-07-28T14:21:00.888Z,39.01
2022-07-28T14:23:28.738Z,38.96
2022-07-28T14:26:18.430Z,38.79
2022-07-28T14:28:45.478Z,38.25
2022-07-28T14:31:13.345Z,38.22
2022-07-28T14:33:46.352Z,38.62
2022-07-28T14:36:17.574Z,38.80
2022-07-28T14:38:54.758Z,37.74
2022-07-28T14:41:23.597Z,36.85
2022-07-28T14:43:52.973Z,36.83
2022-07-28T14:46:22.276Z,36.72
2022-07-28T14:48:58.371Z,37.05
2022-07-28T14:51:26.211Z,36.99
2022-07-28T14:53:57.146Z,36.76
2022-07-28T14:56:25.392Z,37.19
2022-07-28T14:58:53.042Z,37.17
2022-07-28T15:01:21.350Z,36.66
2022-07-28T15:03:49.116Z,37.11
2022-07-28T15:06:17.070Z,35.91
2022-07-28T15:08:45.365Z,35.93
2022-07-28T15:11:13.412Z,35.71
2022-07-28T15:13:41.204Z,35.67
2022-07-28T15:16:09.057Z,36.28
2022-07-28T15:18:37.221Z,35.70
2022-07-28T15:21:08.510Z,36.03
2022-07-28T15:23:36.768Z,36.12
2022-07-28T15:26:04.594Z,37.43
2022-07-28T15:28:32.906Z,37.50
2022-07-28T15:31:01.665Z,37.43
2022-07-28T15:33:29.888Z,37.26
2022-07-28T15:36:00.855Z,38.20
2022-07-28T15:38:31.611Z,39.52
2022-07-28T15:41:00.110Z,39.11
2022-07-28T15:43:29.241Z,40.12
2022-07-28T15:45:57.987Z,40.73
2022-07-28T15:48:26.539Z,40.14
2022-07-28T15:50:54.365Z,40.77
2022-07-28T15:53:22.921Z,39.04
2022-07-28T15:55:51.872Z,40.18
2022-07-28T15:58:21.575Z,38.53
2022-07-28T16:00:50.511Z,38.70
2022-07-28T16:03:19.457Z,38.60
2022-07-28T16:05:50.723Z,39.04
2022-07-28T16:08:22.831Z,38.36
2022-07-28T16:10:54.216Z,38.17
2022-07-28T16:13:35.649Z,38.22
2022-07-28T16:16:07.353Z,38.45
2022-07-28T16:18:38.448Z,38.14
2022-07-28T16:21:07.731Z,37.14
2022-07-28T16:23:36.058Z,36.97
2022-07-28T16:26:07.883Z,36.90
2022-07-28T16:28:36.803Z,36.23
2022-07-28T16:31:05.243Z,35.71
2022-07-28T16:33:33.850Z,35.26
2022-07-28T16:36:03.092Z,35.18
2022-07-28T16:38:31.413Z,35.56
2022-07-28T16:40:59.536Z,36.09
2022-07-28T16:43:27.352Z,36.69
2022-07-28T16:45:55.537Z,37.33
2022-07-28T16:48:23.502Z,39.01
2022-07-28T16:50:51.956Z,39.12
2022-07-28T16:53:20.683Z,37.91
2022-07-28T16:55:49.088Z,37.43
2022-07-28T16:58:18.654Z,38.07
2022-07-28T17:00:47.017Z,36.86
2022-07-28T17:03:17.057Z,36.12
2022-07-28T17:05:45.348Z,35.42
2022-07-28T17:08:13.271Z,35.59
2022-07-28T17:10:41.383Z,35.75
2022-07-28T17:13:12.059Z,35.78
2022-07-28T17:15:41.066Z,35.41
2022-07-28T17:18:09.045Z,35.14
2022-07-28T17:20:39.975Z,34.64
2022-07-28T17:23:08.334Z,34.41
2022-07-28T17:28:25.511Z,33.80
2022-07-28T17:30:53.397Z,33.86
2022-07-28T17:33:21.736Z,33.75
2022-07-28T17:35:50.061Z,33.38
2022-07-28T17:38:21.541Z,33.32
2022-07-28T17:40:51.284Z,33.17
2022-07-28T17:43:20.508Z,32.90
2022-07-28T17:45:49.738Z,32.83
2022-07-28T17:48:18.674Z,32.76
2022-07-28T17:50:46.711Z,32.96
2022-07-28T17:53:15.858Z,33.06
2022-07-28T17:55:47.574Z,33.13
2022-07-28T17:58:32.300Z,32.84
2022-07-28T18:01:11.183Z,32.60
2022-07-28T18:03:56.963Z,32.46
2022-07-28T18:06:32.192Z,32.32
2022-07-28T18:09:06.427Z,32.44
2022-07-28T18:11:56.736Z,32.23
2022-07-28T18:14:30.350Z,32.37
2022-07-28T18:16:59.511Z,32.12
2022-07-28T18:19:28.472Z,32.32
2022-07-28T18:21:56.284Z,32.30
2022-07-28T18:24:24.244Z,32.27
2022-07-28T18:26:52.919Z,32.03
2022-07-28T18:29:21.744Z,31.98
2022-07-28T18:31:51.839Z,31.88
2022-07-28T18:34:23.112Z,31.41
2022-07-28T18:36:53.981Z,31.35
2022-07-28T18:39:22.847Z,31.43
2022-07-28T18:41:56.074Z,31.39
2022-07-28T18:44:24.364Z,31.41
2022-07-28T18:46:52.602Z,31.04
2022-07-28T18:49:21.713Z,31.03
2022-07-28T18:51:49.573Z,30.99
2022-07-28T18:54:27.133Z,30.83
2022-07-28T18:56:57.022Z,30.63
2022-07-28T18:59:25.520Z,30.58
2022-07-28T19:01:53.330Z,30.66
2022-07-28T19:04:21.668Z,30.52
2022-07-28T19:06:50.005Z,30.59
2022-07-28T19:09:18.531Z,30.80
2022-07-28T19:11:46.977Z,30.66
2022-07-28T19:14:16.443Z,30.52
2022-07-28T19:16:44.681Z,30.50
2022-07-28T19:19:14.572Z,30.71
2022-07-28T19:21:43.575Z,30.82
2022-07-28T19:24:14.165Z,30.72
2022-07-28T19:26:44.508Z,30.79
2022-07-28T19:29:13.755Z,30.77
2022-07-28T19:31:42.245Z,30.85
2022-07-28T19:34:11.522Z,30.75
2022-07-28T19:36:41.853Z,30.76
2022-07-28T19:39:12.179Z,30.76
2022-07-28T19:41:41.541Z,30.73
2022-07-28T19:44:10.142Z,30.71
2022-07-28T19:46:39.374Z,30.68
2022-07-28T19:49:09.095Z,30.66
2022-07-28T19:51:38.116Z,30.63
2022-07-28T19:54:06.413Z,30.53
2022-07-28T19:56:34.329Z,30.29
2022-07-28T19:59:02.699Z,30.31
2022-07-28T20:01:31.035Z,30.27
2022-07-28T20:04:01.894Z,30.29
2022-07-28T20:06:32.470Z,30.33
2022-07-28T20:09:01.652Z,30.34
2022-07-28T20:11:30.120Z,30.38
2022-07-28T20:13:58.324Z,30.24
2022-07-28T20:16:26.480Z,30.24
2022-07-28T20:18:54.370Z,30.18
2022-07-28T20:21:24.172Z,30.02
2022-07-28T20:23:57.038Z,29.79
2022-07-28T20:26:27.228Z,29.58
2022-07-28T20:28:58.594Z,29.46
2022-07-28T20:31:26.519Z,29.43
2022-07-28T20:33:54.385Z,29.45
2022-07-28T20:36:26.224Z,29.37
2022-07-28T20:38:57.396Z,29.46
2022-07-28T20:41:25.968Z,29.63
2022-07-28T20:44:11.640Z,29.57
2022-07-28T20:46:42.521Z,29.48
2022-07-28T20:49:11.182Z,29.36
2022-07-28T20:51:39.109Z,29.44
2022-07-28T20:54:06.923Z,29.40
2022-07-28T20:56:35.098Z,29.19
2022-07-28T20:59:06.776Z,29.16
2022-07-28T21:01:35.400Z,29.18
2022-07-28T21:04:03.315Z,29.33
2022-07-28T21:06:31.967Z,29.08
2022-07-28T21:09:01.916Z,28.99
2022-07-28T21:11:35.182Z,28.99
2022-07-28T21:14:04.724Z,29.14
2022-07-28T21:16:32.479Z,29.14
2022-07-28T21:19:02.179Z,29.08
2022-07-28T21:21:30.004Z,29.11
2022-07-28T21:23:57.797Z,29.05
2022-07-28T21:26:25.560Z,29.10
2022-07-28T21:29:12.569Z,29.13
2022-07-28T21:32:03.722Z,29.16
2022-07-28T21:34:34.865Z,28.87
2022-07-28T21:37:04.128Z,28.79
2022-07-28T21:39:34.203Z,28.67
2022-07-28T21:42:05.716Z,28.81
2022-07-28T21:44:35.465Z,28.82
2022-07-28T21:47:04.641Z,28.70
2022-07-28T21:49:32.775Z,28.54
2022-07-28T21:52:01.193Z,28.48
2022-07-28T21:54:29.047Z,28.54
2022-07-28T21:56:56.979Z,28.37
2022-07-28T21:59:25.367Z,28.26
2022-07-28T22:01:53.668Z,28.31
2022-07-28T22:04:21.852Z,28.27
2022-07-28T22:06:49.993Z,28.32
2022-07-28T22:09:18.285Z,28.52
2022-07-28T22:11:46.723Z,28.87
2022-07-28T22:14:14.752Z,29.19
2022-07-28T22:16:43.183Z,28.12
2022-07-28T22:19:12.599Z,27.96
2022-07-28T22:21:40.768Z,27.83
2022-07-28T22:24:09.152Z,27.74
2022-07-28T22:26:36.975Z,27.58
2022-07-28T22:29:05.177Z,27.32
2022-07-28T22:31:33.033Z,27.03
2022-07-28T22:34:00.852Z,26.67
2022-07-28T22:36:28.821Z,26.11
2022-07-28T22:38:56.794Z,26.10
2022-07-28T22:41:24.895Z,25.73
2022-07-28T22:43:55.213Z,25.51
2022-07-28T22:46:23.626Z,25.07
2022-07-28T22:48:51.587Z,25.32
2022-07-28T22:51:19.474Z,25.47
2022-07-28T22:53:47.334Z,25.55
2022-07-28T22:56:26.260Z,25.60
2022-07-28T22:59:03.409Z,25.74
2022-07-28T23:01:31.356Z,25.90
2022-07-28T23:03:59.875Z,25.87
2022-07-28T23:06:28.560Z,25.90
2022-07-28T23:08:56.828Z,25.87
2022-07-28T23:11:24.720Z,25.88
2022-07-28T23:13:52.534Z,25.73
2022-07-28T23:16:20.494Z,25.53
2022-07-28T23:18:48.769Z,25.30
2022-07-28T23:21:17.049Z,24.54
2022-07-28T23:23:45.091Z,24.27
2022-07-28T23:26:13.321Z,24.17
2022-07-28T23:28:41.496Z,24.32
2022-07-28T23:31:09.847Z,24.30
2022-07-28T23:33:56.405Z,24.24
2022-07-28T23:36:27.827Z,24.52
2022-07-28T23:38:57.977Z,24.34
2022-07-28T23:41:27.119Z,24.09
2022-07-28T23:43:55.050Z,24.08
2022-07-28T23:46:23.407Z,24.01
2022-07-28T23:48:51.977Z,24.14
2022-07-28T23:51:21.965Z,24.47
2022-07-28T23:53:55.841Z,24.58
2022-07-28T23:56:24.246Z,24.65
2022-07-28T23:58:52.110Z,24.54
